createdAt,value
2017-06-05T00:00:44.085Z,0
2017-06-05T00:01:44.978Z,0
2017-06-05T00:02:45.621Z,0
2017-06-05T00:03:46.263Z,0
2017-06-05T00:04:46.902Z,0
2017-06-05T00:05:47.545Z,0
2017-06-05T00:06:48.180Z,0
2017-06-05T00:07:48.824Z,0
2017-06-05T00:08:49.460Z,0
2017-06-05T00:09:50.100Z,0
2017-06-05T00:10:50.885Z,0
2017-06-05T00:11:51.525Z,0
2017-06-05T00:12:52.166Z,0
2017-06-05T00:13:52.800Z,0
2017-06-05T00:14:53.444Z,0
2017-06-05T00:15:54.088Z,0
2017-06-05T00:16:54.725Z,0
2017-06-05T00:17:55.363Z,0
2017-06-05T00:18:56.204Z,0
2017-06-05T00:19:56.842Z,0
2017-06-05T00:20:57.482Z,0
2017-06-05T00:21:58.124Z,0
2017-06-05T00:22:58.765Z,0
2017-06-05T00:23:59.407Z,0
2017-06-05T00:25:00.046Z,0
2017-06-05T00:26:00.688Z,0
2017-06-05T00:27:01.481Z,0
2017-06-05T00:28:02.122Z,0
2017-06-05T00:29:02.761Z,0
2017-06-05T00:30:03.400Z,0
2017-06-05T00:31:04.041Z,0
2017-06-05T00:32:04.680Z,0
2017-06-05T00:33:05.322Z,0
2017-06-05T00:34:05.964Z,0
2017-06-05T00:35:06.906Z,0
2017-06-05T00:36:07.551Z,0
2017-06-05T00:37:08.196Z,0
2017-06-05T00:38:08.836Z,0
2017-06-05T00:39:09.476Z,0
2017-06-05T00:40:10.115Z,0
2017-06-05T00:41:10.750Z,0
2017-06-05T00:42:11.396Z,0
2017-06-05T00:43:12.339Z,0
2017-06-05T00:44:12.982Z,0
2017-06-05T00:45:13.625Z,0
2017-06-05T00:46:14.266Z,0
2017-06-05T00:47:14.902Z,0
2017-06-05T00:48:15.543Z,0
2017-06-05T00:49:16.179Z,0
2017-06-05T00:50:16.821Z,0
2017-06-05T00:51:17.465Z,0
2017-06-05T00:52:18.306Z,0
2017-06-05T00:53:18.950Z,0
2017-06-05T00:54:19.584Z,0
2017-06-05T00:55:20.228Z,0
2017-06-05T00:56:20.871Z,0
2017-06-05T00:57:21.505Z,0
2017-06-05T00:58:22.147Z,0
2017-06-05T00:59:22.781Z,0
2017-06-05T01:00:23.575Z,0
2017-06-05T01:01:24.216Z,0
2017-06-05T01:02:24.853Z,0
2017-06-05T01:03:25.492Z,0
2017-06-05T01:04:26.132Z,0
2017-06-05T01:05:26.770Z,0
2017-06-05T01:06:27.406Z,0
2017-06-05T01:07:28.046Z,0
2017-06-05T01:08:28.889Z,0
2017-06-05T01:09:29.526Z,0
2017-06-05T01:10:30.167Z,0
2017-06-05T01:11:30.809Z,0
2017-06-05T01:12:31.448Z,0
2017-06-05T01:13:32.091Z,0
2017-06-05T01:14:32.735Z,0
2017-06-05T01:15:33.373Z,0
2017-06-05T01:16:34.163Z,0
2017-06-05T01:17:34.805Z,0
2017-06-05T01:18:35.447Z,0
2017-06-05T01:19:36.088Z,0
2017-06-05T01:20:36.728Z,0
2017-06-05T01:21:37.372Z,0
2017-06-05T01:22:38.010Z,0
2017-06-05T01:23:38.648Z,0
2017-06-05T01:24:39.284Z,0
2017-06-05T01:25:40.124Z,0
2017-06-05T01:26:40.766Z,0
2017-06-05T01:27:41.410Z,0
2017-06-05T01:28:42.055Z,0
2017-06-05T01:29:42.692Z,0
2017-06-05T01:30:43.331Z,0
2017-06-05T01:31:43.972Z,0
2017-06-05T01:32:44.612Z,0
2017-06-05T01:33:45.453Z,0
2017-06-05T01:34:46.094Z,0
2017-06-05T01:35:46.735Z,0
2017-06-05T01:36:47.380Z,0
2017-06-05T01:37:48.021Z,0
2017-06-05T01:38:48.665Z,0
2017-06-05T01:39:49.307Z,0
2017-06-05T01:40:49.948Z,0
2017-06-05T01:41:50.791Z,0
2017-06-05T01:42:51.426Z,0
2017-06-05T01:43:52.066Z,0
2017-06-05T01:44:52.708Z,0
2017-06-05T01:45:53.351Z,0
2017-06-05T01:46:53.991Z,0
2017-06-05T01:47:54.632Z,0
2017-06-05T01:48:55.274Z,0
2017-06-05T01:49:56.065Z,0
2017-06-05T01:50:56.705Z,0
2017-06-05T01:51:57.346Z,0
2017-06-05T01:52:57.979Z,0
2017-06-05T01:53:58.624Z,0
2017-06-05T01:54:59.265Z,0
2017-06-05T01:55:59.901Z,0
2017-06-05T01:57:00.543Z,0
2017-06-05T01:58:01.385Z,0
2017-06-05T01:59:02.027Z,0
2017-06-05T02:00:02.668Z,0
2017-06-05T02:01:03.309Z,0
2017-06-05T02:02:03.951Z,0
2017-06-05T02:03:04.588Z,0
2017-06-05T02:04:05.231Z,0
2017-06-05T02:05:05.868Z,0
2017-06-05T02:06:06.511Z,0
2017-06-05T02:07:07.296Z,0
2017-06-05T02:08:07.938Z,0
2017-06-05T02:09:08.583Z,0
2017-06-05T02:10:09.226Z,0
2017-06-05T02:11:09.872Z,0
2017-06-05T02:12:10.504Z,0
2017-06-05T02:13:11.139Z,0
2017-06-05T02:14:11.781Z,0
2017-06-05T02:15:12.625Z,0
2017-06-05T02:16:13.467Z,0
2017-06-05T02:17:14.110Z,0
2017-06-05T02:18:14.750Z,0
2017-06-05T02:19:15.395Z,0
2017-06-05T02:20:16.038Z,0
2017-06-05T02:21:16.677Z,0
2017-06-05T02:22:17.318Z,0
2017-06-05T02:23:18.159Z,0
2017-06-05T02:24:18.796Z,0
2017-06-05T02:25:19.437Z,0
2017-06-05T02:26:20.078Z,0
2017-06-05T02:27:20.722Z,0
2017-06-05T02:28:21.358Z,0
2017-06-05T02:29:22.000Z,0
2017-06-05T02:30:22.638Z,0
2017-06-05T02:31:23.475Z,0
2017-06-05T02:32:24.117Z,0
2017-06-05T02:33:24.758Z,0
2017-06-05T02:34:25.395Z,0
2017-06-05T02:35:26.031Z,0
2017-06-05T02:36:26.667Z,0
2017-06-05T02:37:27.307Z,0
2017-06-05T02:38:27.949Z,0
2017-06-05T02:39:28.591Z,0
2017-06-05T02:40:29.426Z,0
2017-06-05T02:41:30.068Z,0
2017-06-05T02:42:30.712Z,0
2017-06-05T02:43:31.352Z,0
2017-06-05T02:44:31.991Z,0
2017-06-05T02:45:32.631Z,0
2017-06-05T02:46:33.273Z,0
2017-06-05T02:47:33.913Z,0
2017-06-05T02:48:34.704Z,0
2017-06-05T02:49:35.346Z,0
2017-06-05T02:50:35.985Z,0
2017-06-05T02:51:36.627Z,0
2017-06-05T02:52:37.267Z,0
2017-06-05T02:53:37.912Z,0
2017-06-05T02:54:38.551Z,0
2017-06-05T02:55:39.188Z,0
2017-06-05T02:56:40.023Z,0
2017-06-05T02:57:40.665Z,0
2017-06-05T02:58:41.305Z,0
2017-06-05T02:59:41.945Z,0
2017-06-05T03:00:42.582Z,0
2017-06-05T03:01:43.223Z,0
2017-06-05T03:02:43.864Z,0
2017-06-05T03:03:44.506Z,0
2017-06-05T03:04:45.446Z,0
2017-06-05T03:05:46.103Z,0
2017-06-05T03:06:46.736Z,0
2017-06-05T03:07:47.376Z,0
2017-06-05T03:08:48.017Z,0
2017-06-05T03:09:48.654Z,0
2017-06-05T03:10:49.295Z,0
2017-06-05T03:11:49.939Z,0
2017-06-05T03:12:50.975Z,0
2017-06-05T03:13:51.615Z,0
2017-06-05T03:14:52.255Z,0
2017-06-05T03:15:52.895Z,0
2017-06-05T03:16:53.537Z,0
2017-06-05T03:17:54.176Z,0
2017-06-05T03:18:54.816Z,0
2017-06-05T03:19:55.459Z,0
2017-06-05T03:20:56.100Z,0
2017-06-05T03:21:57.043Z,0
2017-06-05T03:22:57.682Z,0
2017-06-05T03:23:58.323Z,0
2017-06-05T03:24:58.963Z,0
2017-06-05T03:25:59.603Z,0
2017-06-05T03:27:00.246Z,0
2017-06-05T03:28:00.887Z,0
2017-06-05T03:29:01.529Z,0
2017-06-05T03:30:02.371Z,0
2017-06-05T03:31:03.009Z,0
2017-06-05T03:32:03.654Z,0
2017-06-05T03:33:04.294Z,0
2017-06-05T03:34:04.929Z,0
2017-06-05T03:35:05.571Z,0
2017-06-05T03:36:06.213Z,0
2017-06-05T03:37:06.851Z,0
2017-06-05T03:38:07.694Z,0
2017-06-05T03:39:08.336Z,0
2017-06-05T03:40:08.976Z,0
2017-06-05T03:41:09.616Z,0
2017-06-05T03:42:10.255Z,0
2017-06-05T03:43:10.898Z,0
2017-06-05T03:44:11.537Z,0
2017-06-05T03:45:12.175Z,0
2017-06-05T03:46:12.966Z,0
2017-06-05T03:47:13.610Z,0
2017-06-05T03:48:14.249Z,0
2017-06-05T03:49:14.883Z,0
2017-06-05T03:50:15.524Z,0
2017-06-05T03:51:16.165Z,0
2017-06-05T03:52:16.806Z,0
2017-06-05T03:53:17.449Z,0
2017-06-05T03:54:18.087Z,0
2017-06-05T03:55:18.928Z,0
2017-06-05T03:56:19.570Z,0
2017-06-05T03:57:20.206Z,0
2017-06-05T03:58:20.849Z,0
2017-06-05T03:59:21.487Z,0
2017-06-05T04:00:22.128Z,0
2017-06-05T04:01:22.769Z,0
2017-06-05T04:02:23.411Z,0
2017-06-05T04:03:24.246Z,0
2017-06-05T04:04:24.886Z,0
2017-06-05T04:05:25.529Z,0
2017-06-05T04:06:26.169Z,0
2017-06-05T04:07:26.809Z,0
2017-06-05T04:08:27.448Z,0
2017-06-05T04:09:28.087Z,0
2017-06-05T04:10:28.727Z,0
2017-06-05T04:11:29.818Z,0
2017-06-05T04:12:30.458Z,0
2017-06-05T04:13:31.098Z,0
2017-06-05T04:14:31.745Z,0
2017-06-05T04:15:32.381Z,0
2017-06-05T04:16:33.020Z,0
2017-06-05T04:17:33.664Z,0
2017-06-05T04:18:34.308Z,0
2017-06-05T04:19:35.099Z,0
2017-06-05T04:20:35.740Z,0
2017-06-05T04:21:36.385Z,0
2017-06-05T04:22:37.024Z,0
2017-06-05T04:23:37.666Z,0
2017-06-05T04:24:38.306Z,0
2017-06-05T04:25:38.946Z,0
2017-06-05T04:26:39.587Z,0
2017-06-05T04:27:40.426Z,0
2017-06-05T04:28:41.074Z,0
2017-06-05T04:29:41.707Z,0
2017-06-05T04:30:42.347Z,0
2017-06-05T04:31:42.989Z,0
2017-06-05T04:32:43.628Z,0
2017-06-05T04:33:44.270Z,0
2017-06-05T04:34:44.912Z,0
2017-06-05T04:35:45.547Z,0
2017-06-05T04:36:46.390Z,0
2017-06-05T04:37:47.033Z,0
2017-06-05T04:38:47.674Z,0
2017-06-05T04:39:48.315Z,0
2017-06-05T04:40:48.958Z,0
2017-06-05T04:41:49.599Z,0
2017-06-05T04:42:50.238Z,0
2017-06-05T04:43:50.873Z,0
2017-06-05T04:44:51.715Z,0
2017-06-05T04:45:52.356Z,0
2017-06-05T04:46:53.000Z,0
2017-06-05T04:47:53.638Z,0
2017-06-05T04:48:54.273Z,0
2017-06-05T04:49:54.916Z,0
2017-06-05T04:50:55.556Z,0
2017-06-05T04:51:56.196Z,0
2017-06-05T04:52:57.035Z,0
2017-06-05T04:53:57.679Z,0
2017-06-05T04:54:58.321Z,0
2017-06-05T04:55:58.960Z,0
2017-06-05T04:56:59.600Z,0
2017-06-05T04:58:00.241Z,0
2017-06-05T04:59:00.883Z,0
2017-06-05T05:00:01.521Z,0
2017-06-05T05:01:02.312Z,0
2017-06-05T05:02:02.946Z,0
2017-06-05T05:03:03.591Z,0
2017-06-05T05:04:04.231Z,0
2017-06-05T05:05:04.872Z,0
2017-06-05T05:06:05.513Z,0
2017-06-05T05:07:06.153Z,0
2017-06-05T05:08:06.795Z,0
2017-06-05T05:09:07.434Z,0
2017-06-05T05:10:08.277Z,0
2017-06-05T05:11:08.916Z,0
2017-06-05T05:12:09.557Z,0
2017-06-05T05:13:10.197Z,0
2017-06-05T05:14:10.837Z,0
2017-06-05T05:15:11.479Z,0
2017-06-05T05:16:12.123Z,0
2017-06-05T05:17:12.761Z,0
2017-06-05T05:18:13.653Z,0
2017-06-05T05:19:14.287Z,0
2017-06-05T05:20:14.929Z,0
2017-06-05T05:21:15.566Z,0
2017-06-05T05:22:16.201Z,0
2017-06-05T05:23:16.842Z,0
2017-06-05T05:24:17.481Z,0
2017-06-05T05:25:18.123Z,0
2017-06-05T05:26:19.017Z,0
2017-06-05T05:27:19.656Z,0
2017-06-05T05:28:20.298Z,0
2017-06-05T05:29:20.937Z,0
2017-06-05T05:30:21.577Z,0
2017-06-05T05:31:22.218Z,0
2017-06-05T05:32:22.859Z,0
2017-06-05T05:33:23.502Z,0
2017-06-05T05:34:24.393Z,0
2017-06-05T05:35:25.042Z,0
2017-06-05T05:36:25.680Z,0
2017-06-05T05:37:26.321Z,0
2017-06-05T05:38:26.964Z,0
2017-06-05T05:39:27.606Z,0
2017-06-05T05:40:28.248Z,0
2017-06-05T05:41:28.894Z,0
2017-06-05T05:42:29.676Z,0
2017-06-05T05:43:30.322Z,0
2017-06-05T05:44:30.962Z,0
2017-06-05T05:45:31.596Z,0
2017-06-05T05:46:32.234Z,0
2017-06-05T05:47:32.876Z,0
2017-06-05T05:48:33.515Z,0
2017-06-05T05:49:34.158Z,0
2017-06-05T05:50:34.793Z,0
2017-06-05T05:51:35.685Z,0
2017-06-05T05:52:36.326Z,0
2017-06-05T05:53:36.961Z,0
2017-06-05T05:54:37.603Z,0
2017-06-05T05:55:38.244Z,0
2017-06-05T05:56:38.891Z,0
2017-06-05T05:57:39.525Z,0
2017-06-05T05:58:40.168Z,0
2017-06-05T05:59:41.006Z,0
2017-06-05T06:00:41.649Z,0
2017-06-05T06:01:42.290Z,0
2017-06-05T06:02:42.929Z,0
2017-06-05T06:03:43.572Z,0
2017-06-05T06:04:44.207Z,0
2017-06-05T06:05:44.849Z,0
2017-06-05T06:06:45.491Z,0
2017-06-05T06:07:46.331Z,0
2017-06-05T06:08:46.973Z,0
2017-06-05T06:09:47.611Z,0
2017-06-05T06:10:48.256Z,0
2017-06-05T06:11:48.900Z,0
2017-06-05T06:12:49.538Z,0
2017-06-05T06:13:50.176Z,0
2017-06-05T06:14:50.820Z,0
2017-06-05T06:15:51.604Z,0
2017-06-05T06:16:52.194Z,0
2017-06-05T06:17:52.836Z,0
2017-06-05T06:18:53.478Z,0
2017-06-05T06:19:54.113Z,0
2017-06-05T06:20:54.755Z,0
2017-06-05T06:21:55.397Z,0
2017-06-05T06:22:56.035Z,0
2017-06-05T06:23:56.677Z,0
2017-06-05T06:24:57.517Z,4
2017-06-05T06:25:58.164Z,0
2017-06-05T06:26:58.856Z,0
2017-06-05T06:27:59.496Z,0
2017-06-05T06:29:00.139Z,0
2017-06-05T06:30:00.780Z,0
2017-06-05T06:31:01.422Z,0
2017-06-05T06:32:02.061Z,0
2017-06-05T06:33:02.849Z,0
2017-06-05T06:34:03.483Z,0
2017-06-05T06:35:04.153Z,0
2017-06-05T06:36:04.767Z,0
2017-06-05T06:37:05.409Z,0
2017-06-05T06:38:06.049Z,0
2017-06-05T06:39:06.691Z,0
2017-06-05T06:40:07.331Z,0
2017-06-05T06:41:08.271Z,0
2017-06-05T06:42:08.911Z,0
2017-06-05T06:43:09.548Z,0
2017-06-05T06:44:10.187Z,4
2017-06-05T06:45:10.829Z,4
2017-06-05T06:46:11.469Z,8
2017-06-05T06:47:12.108Z,8
2017-06-05T06:48:12.751Z,8
2017-06-05T06:49:13.543Z,8
2017-06-05T06:50:14.184Z,0
2017-06-05T06:51:14.823Z,0
2017-06-05T06:52:15.467Z,0
2017-06-05T06:53:16.114Z,0
2017-06-05T06:54:16.753Z,0
2017-06-05T06:55:17.394Z,0
2017-06-05T06:56:18.033Z,0
2017-06-05T06:57:18.873Z,0
2017-06-05T06:58:19.513Z,0
2017-06-05T06:59:20.154Z,0
2017-06-05T07:00:20.794Z,0
2017-06-05T07:01:21.433Z,0
2017-06-05T07:02:22.075Z,0
2017-06-05T07:03:22.710Z,0
2017-06-05T07:04:23.347Z,0
2017-06-05T07:05:23.986Z,0
2017-06-05T07:06:24.829Z,0
2017-06-05T07:07:25.471Z,0
2017-06-05T07:08:26.114Z,0
2017-06-05T07:09:26.757Z,0
2017-06-05T07:10:27.398Z,0
2017-06-05T07:11:28.036Z,0
2017-06-05T07:12:28.679Z,0
2017-06-05T07:13:29.319Z,0
2017-06-05T07:14:30.211Z,0
2017-06-05T07:15:30.852Z,0
2017-06-05T07:16:31.496Z,0
2017-06-05T07:17:32.133Z,0
2017-06-05T07:18:32.776Z,0
2017-06-05T07:19:33.415Z,0
2017-06-05T07:20:34.054Z,0
2017-06-05T07:21:34.699Z,0
2017-06-05T07:22:35.534Z,0
2017-06-05T07:23:36.169Z,0
2017-06-05T07:24:36.810Z,0
2017-06-05T07:25:37.455Z,0
2017-06-05T07:26:38.096Z,0
2017-06-05T07:27:38.736Z,0
2017-06-05T07:28:39.378Z,0
2017-06-05T07:29:40.018Z,0
2017-06-05T07:30:40.807Z,0
2017-06-05T07:31:41.448Z,0
2017-06-05T07:32:42.089Z,0
2017-06-05T07:33:42.740Z,0
2017-06-05T07:34:43.374Z,0
2017-06-05T07:35:44.015Z,0
2017-06-05T07:36:44.654Z,0
2017-06-05T07:37:45.296Z,0
2017-06-05T07:38:45.935Z,0
2017-06-05T07:39:46.775Z,0
2017-06-05T07:40:47.422Z,0
2017-06-05T07:41:48.062Z,0
2017-06-05T07:42:48.706Z,0
2017-06-05T07:43:49.344Z,0
2017-06-05T07:44:49.984Z,0
2017-06-05T07:45:50.629Z,0
2017-06-05T07:46:51.264Z,0
2017-06-05T07:47:52.205Z,0
2017-06-05T07:48:52.843Z,0
2017-06-05T07:49:53.483Z,0
2017-06-05T07:50:54.125Z,0
2017-06-05T07:51:54.766Z,0
2017-06-05T07:52:55.409Z,0
2017-06-05T07:53:56.047Z,0
2017-06-05T07:54:56.689Z,0
2017-06-05T07:55:57.535Z,0
2017-06-05T07:56:58.172Z,0
2017-06-05T07:57:58.813Z,0
2017-06-05T07:58:59.452Z,0
2017-06-05T08:00:00.095Z,0
2017-06-05T08:01:00.737Z,0
2017-06-05T08:02:01.378Z,0
2017-06-05T08:03:02.017Z,0
2017-06-05T08:04:02.808Z,0
2017-06-05T08:05:03.453Z,0
2017-06-05T08:06:04.092Z,0
2017-06-05T08:07:04.734Z,0
2017-06-05T08:08:05.379Z,0
2017-06-05T08:09:06.019Z,0
2017-06-05T08:10:06.613Z,0
2017-06-05T08:11:07.253Z,0
2017-06-05T08:12:08.090Z,0
2017-06-05T08:13:08.732Z,0
2017-06-05T08:14:09.372Z,0
2017-06-05T08:15:10.014Z,0
2017-06-05T08:16:10.659Z,0
2017-06-05T08:17:11.297Z,0
2017-06-05T08:18:11.936Z,4
2017-06-05T08:19:12.579Z,4
2017-06-05T08:20:13.218Z,4
2017-06-05T08:21:14.158Z,4
2017-06-05T08:22:14.800Z,4
2017-06-05T08:23:15.445Z,4
2017-06-05T08:24:16.084Z,4
2017-06-05T08:25:16.723Z,4
2017-06-05T08:26:17.367Z,4
2017-06-05T08:27:18.009Z,4
2017-06-05T08:28:18.648Z,4
2017-06-05T08:29:19.442Z,4
2017-06-05T08:30:20.082Z,4
2017-06-05T08:31:20.722Z,4
2017-06-05T08:32:21.362Z,4
2017-06-05T08:33:21.999Z,4
2017-06-05T08:34:22.636Z,4
2017-06-05T08:35:23.277Z,4
2017-06-05T08:36:23.916Z,4
2017-06-05T08:37:24.757Z,4
2017-06-05T08:38:25.399Z,4
2017-06-05T08:39:26.039Z,4
2017-06-05T08:40:26.682Z,0
2017-06-05T08:41:27.325Z,12
2017-06-05T08:42:27.964Z,12
2017-06-05T08:43:28.606Z,12
2017-06-05T08:44:29.249Z,12
2017-06-05T08:45:30.095Z,12
2017-06-05T08:46:30.735Z,12
2017-06-05T08:47:31.378Z,8
2017-06-05T08:48:32.018Z,8
2017-06-05T08:49:32.658Z,12
2017-06-05T08:50:33.301Z,12
2017-06-05T08:51:33.941Z,12
2017-06-05T08:52:34.584Z,12
2017-06-05T08:53:35.227Z,12
2017-06-05T08:54:36.068Z,8
2017-06-05T08:55:36.708Z,8
2017-06-05T08:56:37.348Z,8
2017-06-05T08:57:37.985Z,8
2017-06-05T08:58:38.623Z,8
2017-06-05T08:59:39.260Z,12
2017-06-05T09:00:39.903Z,12
2017-06-05T09:01:40.545Z,8
2017-06-05T09:02:41.387Z,8
2017-06-05T09:03:42.021Z,8
2017-06-05T09:04:42.664Z,12
2017-06-05T09:05:43.307Z,20
2017-06-05T09:06:43.950Z,20
2017-06-05T09:07:44.591Z,20
2017-06-05T09:08:45.233Z,20
2017-06-05T09:09:45.877Z,20
2017-06-05T09:10:46.714Z,20
2017-06-05T09:11:47.356Z,20
2017-06-05T09:12:47.997Z,20
2017-06-05T09:13:48.638Z,20
2017-06-05T09:14:49.280Z,16
2017-06-05T09:15:49.923Z,16
2017-06-05T09:16:50.561Z,20
2017-06-05T09:17:51.206Z,16
2017-06-05T09:18:51.949Z,20
2017-06-05T09:19:52.589Z,16
2017-06-05T09:20:53.234Z,20
2017-06-05T09:21:53.872Z,20
2017-06-05T09:22:54.509Z,20
2017-06-05T09:23:55.150Z,16
2017-06-05T09:24:55.784Z,16
2017-06-05T09:25:56.428Z,16
2017-06-05T09:26:57.370Z,20
2017-06-05T09:27:58.007Z,20
2017-06-05T09:28:58.650Z,20
2017-06-05T09:29:59.290Z,20
2017-06-05T09:30:59.936Z,20
2017-06-05T09:32:00.577Z,20
2017-06-05T09:33:01.217Z,20
2017-06-05T09:34:01.859Z,20
2017-06-05T09:35:02.501Z,20
2017-06-05T09:36:03.339Z,20
2017-06-05T09:37:03.981Z,20
2017-06-05T09:38:04.625Z,20
2017-06-05T09:39:05.261Z,20
2017-06-05T09:40:05.907Z,20
2017-06-05T09:41:06.548Z,20
2017-06-05T09:42:07.188Z,20
2017-06-05T09:43:07.832Z,20
2017-06-05T09:44:08.676Z,20
2017-06-05T09:45:09.321Z,20
2017-06-05T09:46:09.963Z,20
2017-06-05T09:47:10.607Z,20
2017-06-05T09:48:11.247Z,20
2017-06-05T09:49:11.883Z,20
2017-06-05T09:50:12.526Z,20
2017-06-05T09:51:13.166Z,20
2017-06-05T09:52:13.959Z,20
2017-06-05T09:53:14.612Z,20
2017-06-05T09:54:15.252Z,20
2017-06-05T09:55:15.897Z,20
2017-06-05T09:56:16.532Z,20
2017-06-05T09:57:17.177Z,20
2017-06-05T09:58:17.822Z,20
2017-06-05T09:59:18.466Z,20
2017-06-05T10:00:19.408Z,24
2017-06-05T10:01:20.050Z,20
2017-06-05T10:02:20.691Z,20
2017-06-05T10:03:21.331Z,20
2017-06-05T10:04:21.973Z,20
2017-06-05T10:05:22.615Z,20
2017-06-05T10:06:23.258Z,20
2017-06-05T10:07:23.903Z,20
2017-06-05T10:08:24.545Z,20
2017-06-05T10:09:25.386Z,20
2017-06-05T10:10:26.031Z,20
2017-06-05T10:11:26.667Z,24
2017-06-05T10:12:27.311Z,24
2017-06-05T10:13:27.956Z,24
2017-06-05T10:14:28.592Z,24
2017-06-05T10:15:29.236Z,24
2017-06-05T10:16:29.884Z,24
2017-06-05T10:17:30.719Z,24
2017-06-05T10:18:31.360Z,24
2017-06-05T10:19:31.995Z,24
2017-06-05T10:20:32.636Z,20
2017-06-05T10:21:33.279Z,20
2017-06-05T10:22:33.920Z,20
2017-06-05T10:23:34.562Z,20
2017-06-05T10:24:35.208Z,24
2017-06-05T10:25:36.050Z,20
2017-06-05T10:26:36.694Z,36
2017-06-05T10:27:37.335Z,36
2017-06-05T10:28:37.977Z,36
2017-06-05T10:29:38.619Z,36
2017-06-05T10:30:39.265Z,32
2017-06-05T10:31:39.907Z,32
2017-06-05T10:32:40.552Z,36
2017-06-05T10:33:41.393Z,36
2017-06-05T10:34:42.044Z,36
2017-06-05T10:35:42.687Z,36
2017-06-05T10:36:43.385Z,36
2017-06-05T10:37:44.027Z,36
2017-06-05T10:38:44.662Z,36
2017-06-05T10:39:45.306Z,36
2017-06-05T10:40:45.952Z,40
2017-06-05T10:41:46.795Z,40
2017-06-05T10:42:47.432Z,36
2017-06-05T10:43:48.074Z,40
2017-06-05T10:44:48.718Z,40
2017-06-05T10:45:49.360Z,40
2017-06-05T10:46:50.004Z,36
2017-06-05T10:47:50.650Z,40
2017-06-05T10:48:51.289Z,36
2017-06-05T10:49:51.934Z,40
2017-06-05T10:50:52.773Z,40
2017-06-05T10:51:53.417Z,40
2017-06-05T10:52:54.060Z,40
2017-06-05T10:53:54.704Z,40
2017-06-05T10:54:55.345Z,40
2017-06-05T10:55:55.988Z,36
2017-06-05T10:56:56.631Z,40
2017-06-05T10:57:57.273Z,40
2017-06-05T10:58:58.117Z,40
2017-06-05T10:59:58.765Z,40
2017-06-05T11:00:59.404Z,40
2017-06-05T11:02:00.044Z,40
2017-06-05T11:03:00.685Z,44
2017-06-05T11:04:01.328Z,44
2017-06-05T11:05:01.970Z,44
2017-06-05T11:06:02.612Z,44
2017-06-05T11:07:03.405Z,40
2017-06-05T11:08:04.048Z,44
2017-06-05T11:09:04.690Z,44
2017-06-05T11:10:05.337Z,44
2017-06-05T11:11:05.978Z,36
2017-06-05T11:12:06.615Z,40
2017-06-05T11:13:07.257Z,40
2017-06-05T11:14:07.898Z,40
2017-06-05T11:15:08.743Z,40
2017-06-05T11:16:09.385Z,40
2017-06-05T11:17:10.029Z,40
2017-06-05T11:18:10.673Z,44
2017-06-05T11:19:11.314Z,44
2017-06-05T11:20:11.957Z,44
2017-06-05T11:21:12.597Z,40
2017-06-05T11:22:13.235Z,44
2017-06-05T11:23:13.881Z,44
2017-06-05T11:24:14.723Z,48
2017-06-05T11:25:15.365Z,44
2017-06-05T11:26:16.007Z,44
2017-06-05T11:27:16.649Z,48
2017-06-05T11:28:17.293Z,44
2017-06-05T11:29:17.929Z,48
2017-06-05T11:30:18.575Z,48
2017-06-05T11:31:19.217Z,48
2017-06-05T11:32:20.208Z,48
2017-06-05T11:33:20.849Z,48
2017-06-05T11:34:21.493Z,48
2017-06-05T11:35:22.137Z,48
2017-06-05T11:36:22.779Z,48
2017-06-05T11:37:23.422Z,48
2017-06-05T11:38:24.066Z,48
2017-06-05T11:39:24.710Z,48
2017-06-05T11:40:25.503Z,52
2017-06-05T11:41:26.146Z,48
2017-06-05T11:42:26.787Z,48
2017-06-05T11:43:27.434Z,48
2017-06-05T11:44:28.130Z,48
2017-06-05T11:45:28.769Z,48
2017-06-05T11:46:29.413Z,48
2017-06-05T11:47:30.058Z,48
2017-06-05T11:48:30.952Z,52
2017-06-05T11:49:31.594Z,52
2017-06-05T11:50:32.235Z,52
2017-06-05T11:51:32.879Z,48
2017-06-05T11:52:33.520Z,48
2017-06-05T11:53:34.159Z,48
2017-06-05T11:54:34.805Z,48
2017-06-05T11:55:35.447Z,48
2017-06-05T11:56:36.341Z,48
2017-06-05T11:57:36.985Z,52
2017-06-05T11:58:37.620Z,52
2017-06-05T11:59:38.262Z,52
2017-06-05T12:00:38.909Z,52
2017-06-05T12:01:39.549Z,48
2017-06-05T12:02:40.192Z,52
2017-06-05T12:03:40.829Z,52
2017-06-05T12:04:41.472Z,52
2017-06-05T12:05:42.312Z,52
2017-06-05T12:06:42.957Z,52
2017-06-05T12:07:43.601Z,52
2017-06-05T12:08:44.242Z,52
2017-06-05T12:09:44.885Z,52
2017-06-05T12:10:45.530Z,52
2017-06-05T12:11:46.168Z,52
2017-06-05T12:12:46.807Z,56
2017-06-05T12:13:47.651Z,52
2017-06-05T12:14:48.295Z,52
2017-06-05T12:15:48.941Z,52
2017-06-05T12:16:49.579Z,52
2017-06-05T12:17:50.224Z,52
2017-06-05T12:18:50.860Z,56
2017-06-05T12:19:51.505Z,56
2017-06-05T12:20:52.142Z,56
2017-06-05T12:21:52.983Z,56
2017-06-05T12:22:53.627Z,56
2017-06-05T12:23:54.274Z,56
2017-06-05T12:24:54.914Z,52
2017-06-05T12:25:55.558Z,52
2017-06-05T12:26:56.199Z,52
2017-06-05T12:27:56.840Z,56
2017-06-05T12:28:57.485Z,56
2017-06-05T12:29:58.325Z,56
2017-06-05T12:30:58.969Z,52
2017-06-05T12:31:59.610Z,56
2017-06-05T12:33:00.254Z,56
2017-06-05T12:34:00.898Z,56
2017-06-05T12:35:01.542Z,56
2017-06-05T12:36:02.182Z,56
2017-06-05T12:37:02.825Z,56
2017-06-05T12:38:03.421Z,56
2017-06-05T12:39:04.262Z,52
2017-06-05T12:40:04.905Z,56
2017-06-05T12:41:05.545Z,56
2017-06-05T12:42:06.186Z,56
2017-06-05T12:43:06.823Z,56
2017-06-05T12:44:07.466Z,56
2017-06-05T12:45:08.108Z,56
2017-06-05T12:46:08.751Z,56
2017-06-05T12:47:09.543Z,56
2017-06-05T12:48:10.186Z,56
2017-06-05T12:49:10.825Z,56
2017-06-05T12:50:11.466Z,56
2017-06-05T12:51:12.108Z,60
2017-06-05T12:52:12.753Z,56
2017-06-05T12:53:13.396Z,60
2017-06-05T12:54:14.039Z,56
2017-06-05T12:55:14.882Z,60
2017-06-05T12:56:15.518Z,56
2017-06-05T12:57:16.163Z,56
2017-06-05T12:58:16.835Z,56
2017-06-05T12:59:17.442Z,56
2017-06-05T13:00:18.084Z,56
2017-06-05T13:01:18.727Z,60
2017-06-05T13:02:19.368Z,60
2017-06-05T13:03:20.161Z,60
2017-06-05T13:04:20.802Z,52
2017-06-05T13:05:21.443Z,56
2017-06-05T13:06:22.088Z,56
2017-06-05T13:07:22.727Z,56
2017-06-05T13:08:23.372Z,56
2017-06-05T13:09:24.009Z,56
2017-06-05T13:10:24.651Z,56
2017-06-05T13:11:25.495Z,60
2017-06-05T13:12:26.136Z,60
2017-06-05T13:13:26.780Z,56
2017-06-05T13:14:27.425Z,56
2017-06-05T13:15:28.069Z,56
2017-06-05T13:16:28.709Z,56
2017-06-05T13:17:29.350Z,60
2017-06-05T13:18:29.994Z,56
2017-06-05T13:19:30.635Z,56
2017-06-05T13:20:31.423Z,56
2017-06-05T13:21:32.068Z,56
2017-06-05T13:22:32.708Z,56
2017-06-05T13:23:33.351Z,56
2017-06-05T13:24:34.000Z,56
2017-06-05T13:25:34.634Z,56
2017-06-05T13:26:35.279Z,56
2017-06-05T13:27:35.919Z,56
2017-06-05T13:28:36.767Z,60
2017-06-05T13:29:37.405Z,56
2017-06-05T13:30:38.049Z,56
2017-06-05T13:31:38.695Z,56
2017-06-05T13:32:39.338Z,56
2017-06-05T13:33:39.978Z,56
2017-06-05T13:34:40.621Z,60
2017-06-05T13:35:41.267Z,56
2017-06-05T13:36:42.107Z,60
2017-06-05T13:37:42.751Z,60
2017-06-05T13:38:43.392Z,56
2017-06-05T13:39:44.034Z,60
2017-06-05T13:40:44.680Z,60
2017-06-05T13:41:45.320Z,60
2017-06-05T13:42:45.967Z,60
2017-06-05T13:43:46.601Z,60
2017-06-05T13:44:47.394Z,60
2017-06-05T13:45:48.039Z,60
2017-06-05T13:46:48.680Z,60
2017-06-05T13:47:49.324Z,60
2017-06-05T13:48:49.970Z,60
2017-06-05T13:49:50.614Z,60
2017-06-05T13:50:51.256Z,60
2017-06-05T13:51:51.897Z,60
2017-06-05T13:52:52.540Z,60
2017-06-05T13:53:53.384Z,60
2017-06-05T13:54:54.027Z,64
2017-06-05T13:55:54.671Z,64
2017-06-05T13:56:55.313Z,60
2017-06-05T13:57:55.954Z,60
2017-06-05T13:58:56.595Z,64
2017-06-05T13:59:57.235Z,64
2017-06-05T14:00:57.878Z,64
2017-06-05T14:01:58.723Z,60
2017-06-05T14:02:59.366Z,64
2017-06-05T14:04:00.009Z,64
2017-06-05T14:05:00.653Z,68
2017-06-05T14:06:01.296Z,64
2017-06-05T14:07:01.936Z,64
2017-06-05T14:08:02.575Z,64
2017-06-05T14:09:03.218Z,64
2017-06-05T14:10:04.011Z,64
2017-06-05T14:11:04.651Z,64
2017-06-05T14:12:05.298Z,64
2017-06-05T14:13:05.935Z,64
2017-06-05T14:14:06.571Z,64
2017-06-05T14:15:07.211Z,64
2017-06-05T14:16:07.852Z,68
2017-06-05T14:17:08.500Z,68
2017-06-05T14:18:09.339Z,64
2017-06-05T14:19:09.986Z,64
2017-06-05T14:20:10.626Z,64
2017-06-05T14:21:11.267Z,64
2017-06-05T14:22:11.910Z,68
2017-06-05T14:23:12.548Z,64
2017-06-05T14:24:13.190Z,64
2017-06-05T14:25:13.832Z,64
2017-06-05T14:26:14.675Z,68
2017-06-05T14:27:15.320Z,64
2017-06-05T14:28:15.959Z,64
2017-06-05T14:29:16.602Z,64
2017-06-05T14:30:17.243Z,64
2017-06-05T14:31:17.885Z,68
2017-06-05T14:32:18.527Z,68
2017-06-05T14:33:19.169Z,72
2017-06-05T14:34:19.813Z,68
2017-06-05T14:35:20.702Z,68
2017-06-05T14:36:21.348Z,68
2017-06-05T14:37:21.991Z,72
2017-06-05T14:38:22.626Z,72
2017-06-05T14:39:23.269Z,72
2017-06-05T14:40:23.914Z,72
2017-06-05T14:41:24.557Z,72
2017-06-05T14:42:25.201Z,76
2017-06-05T14:43:26.045Z,76
2017-06-05T14:44:26.687Z,76